Time;durP1;ratioP1;P1;durP2;ratioP2;P2;SDS_P1;SDS_P2;PMS_P1;PMS_P2;Temp;Humidity;BMP_temperature;BMP_pressure;BME280_temperature;BME280_humidity;BME280_pressure;Samples;Min_cycle;Max_cycle;Signal;HPM_P1;HPM_P2
2022/08/07 00:01:20;;;;;;;;;;;13.80;99.90;;;;;;5073801;28;20295;-69
2022/08/07 00:03:46;;;;;;;;;;;13.80;99.90;;;;;;5069314;28;19921;-69
2022/08/07 00:06:11;;;;;;;;;;;13.80;99.90;;;;;;5072315;28;19920;-69
2022/08/07 00:08:37;;;;;;;;;;;13.80;99.90;;;;;;5062276;28;19909;-69
2022/08/07 00:11:03;;;;;;;;;;;13.80;99.90;;;;;;5071323;28;19916;-69
2022/08/07 00:13:29;;;;;;;;;;;13.80;99.90;;;;;;5073141;28;19908;-69
2022/08/07 00:15:55;;;;;;;;;;;13.70;99.90;;;;;;5073167;28;20323;-69
2022/08/07 00:18:22;;;;;;;;;;;13.70;99.90;;;;;;5069264;28;19924;-69
2022/08/07 00:20:48;;;;;;;;;;;13.70;99.90;;;;;;5073687;28;19908;-69
2022/08/07 00:23:14;;;;;;;;;;;13.70;99.90;;;;;;5067425;28;20519;-69
2022/08/07 00:25:39;;;;;;;;;;;13.70;99.90;;;;;;5072240;28;20406;-69
2022/08/07 00:28:05;;;;;;;;;;;13.70;99.90;;;;;;5069920;28;19963;-69
2022/08/07 00:30:30;;;;;;;;;;;13.60;99.90;;;;;;5071300;28;19920;-69
2022/08/07 00:32:56;;;;;;;;;;;13.60;99.90;;;;;;5070778;28;19916;-78
2022/08/07 00:35:22;;;;;;;;;;;13.60;99.90;;;;;;5069567;28;19920;-69
2022/08/07 00:37:47;;;;;;;;;;;13.50;99.90;;;;;;5068924;28;19970;-69
2022/08/07 00:40:13;;;;;;;;;;;13.50;99.90;;;;;;5073656;28;19917;-69
2022/08/07 00:42:40;;;;;;;;;;;13.50;99.90;;;;;;5074819;28;20279;-69
2022/08/07 00:45:06;;;;;;;;;;;13.40;99.90;;;;;;5072860;28;19952;-69
2022/08/07 00:47:32;;;;;;;;;;;13.50;99.90;;;;;;5072569;28;19944;-69
2022/08/07 00:49:57;;;;;;;;;;;13.40;99.90;;;;;;5076195;28;19974;-69
2022/08/07 00:52:23;;;;;;;;;;;13.40;99.90;;;;;;5074100;28;19958;-69
2022/08/07 00:54:49;;;;;;;;;;;13.30;99.90;;;;;;5072874;28;20011;-69
2022/08/07 00:57:15;;;;;;;;;;;13.20;99.90;;;;;;5077107;28;19916;-69
2022/08/07 00:59:40;;;;;;;;;;;12.90;99.90;;;;;;5076586;28;19924;-68
2022/08/07 01:02:07;;;;;;;;;;;12.80;99.90;;;;;;5073716;28;19912;-69
2022/08/07 01:04:32;;;;;;;;;;;12.90;99.90;;;;;;5103669;28;19966;-69
2022/08/07 01:06:58;;;;;;;;;;;12.90;99.90;;;;;;5068614;28;20829;-77
2022/08/07 01:09:24;;;;;;;;;;;13.00;99.90;;;;;;5076043;28;19912;-69
2022/08/07 01:11:50;;;;;;;;;;;13.00;99.90;;;;;;5068283;28;20142;-68
2022/08/07 01:14:17;;;;;;;;;;;12.90;99.90;;;;;;5069671;28;19917;-68
2022/08/07 01:16:43;;;;;;;;;;;12.90;99.90;;;;;;5076373;28;20045;-69
2022/08/07 01:19:08;;;;;;;;;;;12.90;99.90;;;;;;5075794;28;20003;-69
2022/08/07 01:21:34;;;;;;;;;;;12.90;99.90;;;;;;5070516;28;19979;-69
2022/08/07 01:24:00;;;;;;;;;;;12.80;99.90;;;;;;5071524;28;19917;-68
2022/08/07 01:26:26;;;;;;;;;;;12.80;99.90;;;;;;5074925;28;21179;-68
2022/08/07 01:28:52;;;;;;;;;;;12.80;99.90;;;;;;5075262;28;19928;-69
2022/08/07 01:31:18;;;;;;;;;;;12.80;99.90;;;;;;5077158;28;20204;-69
2022/08/07 01:33:47;;;;;;;;;;;12.80;99.90;;;;;;5076426;28;19936;-69
2022/08/07 01:36:12;;;;;;;;;;;12.90;99.90;;;;;;5071722;28;19920;-69
2022/08/07 01:38:38;;;;;;;;;;;13.00;99.90;;;;;;5072722;28;20355;-69
2022/08/07 01:41:05;;;;;;;;;;;13.00;99.90;;;;;;5074691;28;19936;-69
2022/08/07 01:43:31;;;;;;;;;;;13.10;99.90;;;;;;5075281;28;19970;-68
2022/08/07 01:45:58;;;;;;;;;;;12.90;99.90;;;;;;5073712;28;19939;-69
2022/08/07 01:48:24;;;;;;;;;;;12.90;99.90;;;;;;5072496;28;20349;-69
2022/08/07 01:51:05;;;;;;;;;;;12.90;99.90;;;;;;5074653;28;19962;-69
2022/08/07 01:53:33;;;;;;;;;;;13.00;99.90;;;;;;5070432;28;21288;-69
2022/08/07 01:56:04;;;;;;;;;;;12.90;99.90;;;;;;5075879;28;19919;-69
2022/08/07 01:58:32;;;;;;;;;;;12.90;99.90;;;;;;5075700;28;19920;-69
2022/08/07 02:01:01;;;;;;;;;;;12.70;99.90;;;;;;5075473;28;20321;-69
2022/08/07 02:03:27;;;;;;;;;;;12.60;99.90;;;;;;5068877;28;19916;-69
2022/08/07 02:06:01;;;;;;;;;;;12.60;99.90;;;;;;5076776;28;19909;-69
2022/08/07 02:08:27;;;;;;;;;;;12.50;99.90;;;;;;5074618;28;20023;-69
2022/08/07 02:10:57;;;;;;;;;;;12.50;99.90;;;;;;5070509;28;20021;-69
2022/08/07 02:13:25;;;;;;;;;;;12.50;99.90;;;;;;5075631;28;19912;-68
2022/08/07 02:15:51;;;;;;;;;;;12.50;99.90;;;;;;5076123;28;19928;-68
2022/08/07 02:18:17;;;;;;;;;;;12.40;99.90;;;;;;5074431;28;20306;-68
2022/08/07 02:20:44;;;;;;;;;;;12.30;99.90;;;;;;5075644;28;19912;-69
2022/08/07 02:23:10;;;;;;;;;;;12.30;99.90;;;;;;5073381;28;20560;-68
2022/08/07 02:25:38;;;;;;;;;;;12.30;99.90;;;;;;5064724;28;19999;-69
2022/08/07 02:28:04;;;;;;;;;;;12.30;99.90;;;;;;5067350;28;19913;-68
2022/08/07 02:30:31;;;;;;;;;;;12.30;99.90;;;;;;5073411;28;19920;-68
2022/08/07 02:32:57;;;;;;;;;;;12.30;99.90;;;;;;5075360;28;19916;-68
2022/08/07 02:35:23;;;;;;;;;;;12.30;99.90;;;;;;5075177;28;19920;-69
2022/08/07 02:37:49;;;;;;;;;;;12.30;99.90;;;;;;5070364;28;19920;-68
2022/08/07 02:40:15;;;;;;;;;;;12.40;99.90;;;;;;5066669;28;20374;-69
2022/08/07 02:42:41;;;;;;;;;;;12.50;99.90;;;;;;5070333;28;19996;-68
2022/08/07 02:45:09;;;;;;;;;;;12.60;99.90;;;;;;5065323;28;19931;-68
2022/08/07 02:47:35;;;;;;;;;;;12.60;99.90;;;;;;5071389;28;19920;-74
2022/08/07 02:50:01;;;;;;;;;;;12.70;99.90;;;;;;5069193;28;19924;-68
2022/08/07 02:52:53;;;;;;;;;;;12.60;99.90;;;;;;5058877;28;20008;-68
2022/08/07 02:55:24;;;;;;;;;;;12.60;99.90;;;;;;5063614;28;20658;-68
2022/08/07 02:57:51;;;;;;;;;;;12.50;99.90;;;;;;5072588;28;19917;-68
2022/08/07 03:00:16;;;;;;;;;;;12.50;99.90;;;;;;5071987;28;19912;-68
2022/08/07 03:02:44;;;;;;;;;;;12.50;99.90;;;;;;5071363;28;20799;-68
2022/08/07 03:05:10;;;;;;;;;;;12.50;99.90;;;;;;5075076;28;19944;-68
2022/08/07 03:07:36;;;;;;;;;;;12.50;99.90;;;;;;5069051;28;20258;-68
2022/08/07 03:10:02;;;;;;;;;;;12.40;99.90;;;;;;5070848;28;20360;-69
2022/08/07 03:12:28;;;;;;;;;;;12.40;99.90;;;;;;5066947;28;19924;-68
2022/08/07 03:14:57;;;;;;;;;;;12.40;99.90;;;;;;5072298;28;19912;-68
2022/08/07 03:17:22;;;;;;;;;;;12.30;99.90;;;;;;5074525;28;19938;-69
2022/08/07 03:19:49;;;;;;;;;;;12.30;99.90;;;;;;5072935;28;20003;-69
2022/08/07 03:22:15;;;;;;;;;;;12.20;99.90;;;;;;5073373;28;19916;-68
2022/08/07 03:24:41;;;;;;;;;;;12.30;99.90;;;;;;5072400;28;20315;-69
2022/08/07 03:27:06;;;;;;;;;;;12.30;99.90;;;;;;5072737;28;19955;-69
2022/08/07 03:29:33;;;;;;;;;;;12.30;99.90;;;;;;5073540;28;19946;-69
2022/08/07 03:32:01;;;;;;;;;;;12.30;99.90;;;;;;5073713;28;19928;-69
2022/08/07 03:34:27;;;;;;;;;;;12.20;99.90;;;;;;5074800;28;19908;-74
2022/08/07 03:36:53;;;;;;;;;;;12.20;99.90;;;;;;5072415;28;19924;-68
2022/08/07 03:39:19;;;;;;;;;;;12.20;99.90;;;;;;5072235;28;20372;-69
2022/08/07 03:41:45;;;;;;;;;;;12.30;99.90;;;;;;5074149;28;19912;-68
2022/08/07 03:44:11;;;;;;;;;;;12.40;99.90;;;;;;5072977;28;20227;-69
2022/08/07 03:46:36;;;;;;;;;;;12.40;99.90;;;;;;5066610;28;19917;-68
2022/08/07 03:49:02;;;;;;;;;;;12.40;99.90;;;;;;5069457;28;19912;-68
2022/08/07 03:51:28;;;;;;;;;;;12.50;99.90;;;;;;5072922;28;20307;-68
2022/08/07 03:53:54;;;;;;;;;;;12.50;99.90;;;;;;5069359;28;19998;-68
2022/08/07 03:56:22;;;;;;;;;;;12.40;99.90;;;;;;5072364;28;19921;-68
2022/08/07 03:58:48;;;;;;;;;;;12.30;99.90;;;;;;5070122;28;19909;-68
2022/08/07 04:01:14;;;;;;;;;;;12.20;99.90;;;;;;5074101;28;19912;-69
2022/08/07 04:03:40;;;;;;;;;;;12.20;99.90;;;;;;5073594;28;19921;-68
2022/08/07 04:06:09;;;;;;;;;;;12.20;99.90;;;;;;5070798;28;19917;-69
2022/08/07 04:08:35;;;;;;;;;;;12.10;99.90;;;;;;5074482;28;19957;-69
2022/08/07 04:11:01;;;;;;;;;;;12.00;99.90;;;;;;5069202;28;19924;-69
2022/08/07 04:13:27;;;;;;;;;;;12.00;99.90;;;;;;5073719;28;19913;-69
2022/08/07 04:15:52;;;;;;;;;;;12.00;99.90;;;;;;5074154;28;19955;-69
2022/08/07 04:18:18;;;;;;;;;;;12.00;99.90;;;;;;5074859;28;20665;-76
2022/08/07 04:20:43;;;;;;;;;;;11.90;99.90;;;;;;5072807;28;19916;-69
2022/08/07 04:23:09;;;;;;;;;;;11.90;99.90;;;;;;5069711;28;21010;-69
2022/08/07 04:25:37;;;;;;;;;;;11.80;99.90;;;;;;5067116;28;19912;-69
2022/08/07 04:28:05;;;;;;;;;;;11.80;99.90;;;;;;5077101;28;19928;-70
2022/08/07 04:30:31;;;;;;;;;;;11.70;99.90;;;;;;5072400;28;19920;-69
2022/08/07 04:32:57;;;;;;;;;;;11.70;99.90;;;;;;5072615;28;19995;-69
2022/08/07 04:35:23;;;;;;;;;;;11.70;99.90;;;;;;5073448;28;20003;-75
2022/08/07 04:37:48;;;;;;;;;;;11.70;99.90;;;;;;5070251;28;19999;-69
2022/08/07 04:40:14;;;;;;;;;;;11.80;99.90;;;;;;5071643;28;19916;-69
2022/08/07 04:42:40;;;;;;;;;;;11.80;99.90;;;;;;5070680;28;19963;-69
2022/08/07 04:45:07;;;;;;;;;;;11.90;99.90;;;;;;5070306;28;20292;-69
2022/08/07 04:47:46;;;;;;;;;;;11.80;99.90;;;;;;5063736;28;19912;-69
2022/08/07 04:50:17;;;;;;;;;;;11.80;99.90;;;;;;5070573;28;19926;-69
2022/08/07 04:52:48;;;;;;;;;;;11.70;99.90;;;;;;5072241;28;19912;-69
2022/08/07 04:55:35;;;;;;;;;;;11.70;99.90;;;;;;5071885;28;19916;-69
2022/08/07 04:58:09;;;;;;;;;;;11.80;99.90;;;;;;5071929;28;20007;-69
2022/08/07 05:00:50;;;;;;;;;;;12.00;99.90;;;;;;5078588;28;20037;-69
2022/08/07 05:03:20;;;;;;;;;;;12.10;99.90;;;;;;5069645;28;19999;-69
2022/08/07 05:06:18;;;;;;;;;;;12.10;99.90;;;;;;5073122;28;20011;-69
2022/08/07 05:08:44;;;;;;;;;;;12.10;99.90;;;;;;5028475;28;19920;-69
2022/08/07 05:11:13;;;;;;;;;;;12.10;99.90;;;;;;5030064;28;20544;-69
2022/08/07 05:13:54;;;;;;;;;;;12.00;99.90;;;;;;5040444;28;19952;-69
2022/08/07 05:16:20;;;;;;;;;;;12.10;99.90;;;;;;5013524;28;19929;-69
2022/08/07 05:18:48;;;;;;;;;;;12.20;99.90;;;;;;5022786;28;20103;-69
2022/08/07 05:21:17;;;;;;;;;;;12.30;99.90;;;;;;5010749;28;20557;-74
2022/08/07 05:23:54;;;;;;;;;;;12.40;99.90;;;;;;5023302;28;20020;-70
2022/08/07 05:26:21;;;;;;;;;;;12.50;99.90;;;;;;5028214;28;19923;-69
2022/08/07 05:28:51;;;;;;;;;;;12.50;99.90;;;;;;5019773;28;19996;-75
2022/08/07 05:31:18;;;;;;;;;;;12.50;99.90;;;;;;5033501;28;19983;-69
2022/08/07 05:33:44;;;;;;;;;;;12.50;99.90;;;;;;5030418;28;20323;-69
2022/08/07 05:36:11;;;;;;;;;;;12.60;99.90;;;;;;5016194;28;19979;-69
2022/08/07 05:38:38;;;;;;;;;;;12.60;99.90;;;;;;5023268;28;19917;-69
2022/08/07 05:41:03;;;;;;;;;;;12.60;99.90;;;;;;5023510;28;20412;-69
2022/08/07 05:43:29;;;;;;;;;;;12.70;99.90;;;;;;5034260;28;19924;-69
2022/08/07 05:45:56;;;;;;;;;;;12.80;99.90;;;;;;5072863;28;19966;-70
2022/08/07 05:48:22;;;;;;;;;;;13.00;99.90;;;;;;5071980;28;20295;-69
2022/08/07 05:50:48;;;;;;;;;;;13.20;99.90;;;;;;5068755;28;19920;-69
2022/08/07 05:53:14;;;;;;;;;;;13.30;99.90;;;;;;5070986;28;19916;-75
2022/08/07 05:55:40;;;;;;;;;;;13.30;99.90;;;;;;5072769;28;19928;-69
2022/08/07 05:58:06;;;;;;;;;;;13.40;99.90;;;;;;5073297;28;20622;-69
2022/08/07 06:00:33;;;;;;;;;;;13.40;99.90;;;;;;5072786;28;20296;-68
2022/08/07 06:03:00;;;;;;;;;;;13.40;99.90;;;;;;5069093;28;20025;-69
2022/08/07 06:05:27;;;;;;;;;;;13.50;99.90;;;;;;5073758;28;19958;-69
2022/08/07 06:07:53;;;;;;;;;;;13.60;99.90;;;;;;5081877;28;19912;-68
2022/08/07 06:10:19;;;;;;;;;;;13.70;99.90;;;;;;5066640;28;20429;-74
2022/08/07 06:12:45;;;;;;;;;;;13.70;99.90;;;;;;5068224;28;19913;-69
2022/08/07 06:15:13;;;;;;;;;;;13.80;99.90;;;;;;5066949;28;19967;-69
2022/08/07 06:17:39;;;;;;;;;;;13.80;99.90;;;;;;5069067;28;19966;-69
2022/08/07 06:20:07;;;;;;;;;;;14.00;99.90;;;;;;5072824;28;19944;-69
2022/08/07 06:22:33;;;;;;;;;;;14.10;99.90;;;;;;5073456;28;19966;-69
2022/08/07 06:24:58;;;;;;;;;;;14.30;99.90;;;;;;5066182;28;19912;-69
2022/08/07 06:27:25;;;;;;;;;;;14.60;99.90;;;;;;5073371;28;19999;-69
2022/08/07 06:29:51;;;;;;;;;;;14.70;99.90;;;;;;5070237;28;19974;-69
2022/08/07 06:32:16;;;;;;;;;;;14.90;99.90;;;;;;5105270;28;20273;-69
2022/08/07 06:34:42;;;;;;;;;;;15.10;99.90;;;;;;5069113;28;19926;-69
2022/08/07 06:37:07;;;;;;;;;;;15.20;99.90;;;;;;5071573;28;20308;-74
2022/08/07 06:39:33;;;;;;;;;;;15.30;99.90;;;;;;5074313;28;19920;-69
2022/08/07 06:42:03;;;;;;;;;;;15.40;99.90;;;;;;5071781;28;19920;-69
2022/08/07 06:44:30;;;;;;;;;;;15.50;99.90;;;;;;5069527;28;19916;-69
2022/08/07 06:46:55;;;;;;;;;;;15.50;99.90;;;;;;5070794;28;20311;-69
2022/08/07 06:49:21;;;;;;;;;;;15.70;99.90;;;;;;5066832;28;19920;-69
2022/08/07 06:51:47;;;;;;;;;;;15.80;99.90;;;;;;5071746;28;19920;-68
2022/08/07 06:54:13;;;;;;;;;;;15.90;99.90;;;;;;5071714;28;19912;-69
2022/08/07 06:56:39;;;;;;;;;;;16.00;99.90;;;;;;5072211;28;19922;-69
2022/08/07 06:59:06;;;;;;;;;;;16.20;99.90;;;;;;5069070;28;19920;-69
2022/08/07 07:01:32;;;;;;;;;;;16.20;99.90;;;;;;5070061;28;19924;-70
2022/08/07 07:03:58;;;;;;;;;;;16.30;99.90;;;;;;5069905;28;19938;-70
2022/08/07 07:06:24;;;;;;;;;;;16.40;99.90;;;;;;5072490;28;20366;-69
2022/08/07 07:08:49;;;;;;;;;;;16.50;99.90;;;;;;5072847;28;20011;-69
2022/08/07 07:11:15;;;;;;;;;;;16.50;99.90;;;;;;5068982;28;20266;-70
2022/08/07 07:13:43;;;;;;;;;;;16.60;99.90;;;;;;5069515;28;19936;-69
2022/08/07 07:16:17;;;;;;;;;;;16.70;99.90;;;;;;5069490;28;19921;-69
2022/08/07 07:18:45;;;;;;;;;;;16.70;99.90;;;;;;5073045;28;19962;-69
2022/08/07 07:21:13;;;;;;;;;;;16.80;99.90;;;;;;5062063;28;19956;-69
2022/08/07 07:23:39;;;;;;;;;;;16.90;99.90;;;;;;5072170;28;19986;-69
2022/08/07 07:26:07;;;;;;;;;;;16.90;99.90;;;;;;5071414;28;20331;-69
2022/08/07 07:28:46;;;;;;;;;;;17.00;99.90;;;;;;5070619;28;19916;-69
2022/08/07 07:31:19;;;;;;;;;;;17.20;99.90;;;;;;5072748;28;19927;-69
2022/08/07 07:33:47;;;;;;;;;;;17.20;99.90;;;;;;5073014;28;20316;-69
2022/08/07 07:36:13;;;;;;;;;;;17.40;99.90;;;;;;5071901;28;20030;-69
2022/08/07 07:38:39;;;;;;;;;;;17.50;99.90;;;;;;5069702;28;20399;-69
2022/08/07 07:41:07;;;;;;;;;;;17.50;99.90;;;;;;5071664;28;20298;-70
2022/08/07 07:43:33;;;;;;;;;;;17.60;99.90;;;;;;5073080;28;20296;-70
2022/08/07 07:45:59;;;;;;;;;;;18.00;99.90;;;;;;5072440;28;19922;-69
2022/08/07 07:48:25;;;;;;;;;;;18.30;99.90;;;;;;5068952;28;19916;-74
2022/08/07 07:50:53;;;;;;;;;;;18.50;99.90;;;;;;5073054;28;19928;-70
2022/08/07 07:53:20;;;;;;;;;;;18.70;99.90;;;;;;5071570;28;20337;-69
2022/08/07 07:55:46;;;;;;;;;;;19.00;99.90;;;;;;5069181;28;19917;-69
2022/08/07 07:58:12;;;;;;;;;;;19.50;99.90;;;;;;5073291;28;19912;-70
2022/08/07 08:00:38;;;;;;;;;;;19.60;99.90;;;;;;5068448;28;19909;-77
2022/08/07 08:03:06;;;;;;;;;;;20.00;99.90;;;;;;5071239;28;20314;-70
2022/08/07 08:05:36;;;;;;;;;;;20.20;99.90;;;;;;5071826;28;19921;-69
2022/08/07 08:08:01;;;;;;;;;;;20.40;99.90;;;;;;5066611;28;20033;-70
2022/08/07 08:10:27;;;;;;;;;;;20.60;99.90;;;;;;5069867;28;20353;-70
2022/08/07 08:12:53;;;;;;;;;;;20.70;99.90;;;;;;5081577;28;19912;-69
2022/08/07 08:15:19;;;;;;;;;;;21.00;99.90;;;;;;5070390;28;20375;-69
2022/08/07 08:17:45;;;;;;;;;;;21.20;99.90;;;;;;5071400;28;20311;-70
2022/08/07 08:20:13;;;;;;;;;;;21.40;99.90;;;;;;5071213;28;20003;-69
2022/08/07 08:28:23;;;;;;;;;;;21.70;99.90;;;;;;5065652;28;20365;-69
2022/08/07 08:30:53;;;;;;;;;;;21.30;99.90;;;;;;5065963;28;19924;-69
2022/08/07 08:33:19;;;;;;;;;;;20.80;99.90;;;;;;5072423;28;19908;-74
2022/08/07 08:35:46;;;;;;;;;;;20.80;99.90;;;;;;5071666;28;19920;-69
2022/08/07 08:38:13;;;;;;;;;;;21.10;99.90;;;;;;5071264;28;19912;-69
2022/08/07 08:40:42;;;;;;;;;;;21.30;99.90;;;;;;5062798;28;19921;-69
2022/08/07 08:43:13;;;;;;;;;;;21.70;99.90;;;;;;5065807;28;19923;-69
2022/08/07 08:45:42;;;;;;;;;;;22.00;99.70;;;;;;5070305;28;19912;-70
2022/08/07 08:48:13;;;;;;;;;;;22.20;99.70;;;;;;5070629;28;19916;-70
2022/08/07 08:50:41;;;;;;;;;;;22.50;99.00;;;;;;5070661;28;19917;-71
2022/08/07 08:53:29;;;;;;;;;;;22.50;98.40;;;;;;5068652;28;19924;-70
2022/08/07 08:56:23;;;;;;;;;;;22.70;98.20;;;;;;5067512;28;20038;-70
2022/08/07 08:58:59;;;;;;;;;;;22.50;97.70;;;;;;5063364;28;20233;-70
2022/08/07 09:01:26;;;;;;;;;;;22.10;98.20;;;;;;5073529;28;19917;-71
2022/08/07 09:04:03;;;;;;;;;;;21.70;98.70;;;;;;5069011;28;19917;-70
2022/08/07 09:06:47;;;;;;;;;;;21.70;98.90;;;;;;5071679;28;20004;-71
2022/08/07 09:09:19;;;;;;;;;;;22.10;99.90;;;;;;5075920;28;20267;-71
2022/08/07 09:12:11;;;;;;;;;;;22.60;99.10;;;;;;5070567;28;19923;-70
2022/08/07 09:14:52;;;;;;;;;;;23.10;98.70;;;;;;5053381;28;20322;-71
2022/08/07 09:17:30;;;;;;;;;;;23.40;96.80;;;;;;5070591;28;19924;-71
2022/08/07 09:20:11;;;;;;;;;;;23.50;96.80;;;;;;5074250;28;19920;-70
2022/08/07 09:22:37;;;;;;;;;;;23.40;97.50;;;;;;5072920;28;19917;-70
2022/08/07 09:25:17;;;;;;;;;;;23.40;97.20;;;;;;5072385;28;19920;-69
2022/08/07 09:27:50;;;;;;;;;;;23.10;96.70;;;;;;5072597;28;19912;-71
2022/08/07 09:30:16;;;;;;;;;;;23.00;98.00;;;;;;5070678;28;19920;-70
2022/08/07 09:32:49;;;;;;;;;;;23.00;97.30;;;;;;5072705;28;19969;-69
2022/08/07 09:35:20;;;;;;;;;;;23.00;98.20;;;;;;5072886;28;19916;-69
2022/08/07 09:38:02;;;;;;;;;;;22.80;98.00;;;;;;5072388;28;20303;-70
2022/08/07 09:40:34;;;;;;;;;;;22.80;97.60;;;;;;5104195;28;20296;-70
2022/08/07 09:43:12;;;;;;;;;;;22.80;98.30;;;;;;5073916;28;19965;-69
2022/08/07 09:46:07;;;;;;;;;;;23.00;97.10;;;;;;5104380;27;19960;-69
2022/08/07 09:48:51;;;;;;;;;;;22.90;97.10;;;;;;5027275;28;19952;-70
2022/08/07 09:51:19;;;;;;;;;;;22.90;97.50;;;;;;5072128;28;19920;-70
2022/08/07 09:53:47;;;;;;;;;;;23.30;96.30;;;;;;5072806;28;19922;-68
2022/08/07 09:56:13;;;;;;;;;;;23.50;96.10;;;;;;5066760;28;19920;-70
2022/08/07 09:58:42;;;;;;;;;;;23.50;96.20;;;;;;5072686;28;19920;-71
2022/08/07 10:01:14;;;;;;;;;;;23.00;96.30;;;;;;5074163;28;19920;-69
2022/08/07 10:03:47;;;;;;;;;;;22.80;97.40;;;;;;5073819;28;19966;-69
2022/08/07 10:06:36;;;;;;;;;;;22.70;98.00;;;;;;5070269;28;20217;-71
2022/08/07 10:09:08;;;;;;;;;;;23.00;99.00;;;;;;5065974;28;19927;-70
2022/08/07 10:11:43;;;;;;;;;;;23.30;96.90;;;;;;5070759;28;19966;-70
2022/08/07 10:14:11;;;;;;;;;;;23.50;96.40;;;;;;5071296;28;19952;-70
2022/08/07 10:16:39;;;;;;;;;;;23.40;97.00;;;;;;5069680;28;19924;-70
2022/08/07 10:19:25;;;;;;;;;;;23.20;96.30;;;;;;5068963;28;19916;-70
2022/08/07 10:22:10;;;;;;;;;;;22.90;96.60;;;;;;5070148;28;19960;-71
2022/08/07 10:24:49;;;;;;;;;;;22.90;97.00;;;;;;5082184;28;19917;-71
2022/08/07 10:27:21;;;;;;;;;;;23.10;97.00;;;;;;5073523;28;20277;-70
2022/08/07 10:30:05;;;;;;;;;;;23.40;96.90;;;;;;5071509;28;19916;-70
2022/08/07 10:32:34;;;;;;;;;;;23.60;95.30;;;;;;5071286;28;19924;-70
2022/08/07 10:35:18;;;;;;;;;;;23.40;96.70;;;;;;5069410;28;19920;-70
2022/08/07 10:38:02;;;;;;;;;;;23.50;96.00;;;;;;5060823;28;20334;-70
2022/08/07 10:40:32;;;;;;;;;;;23.40;96.30;;;;;;5070597;28;19920;-75
2022/08/07 10:43:01;;;;;;;;;;;23.10;96.40;;;;;;5072745;28;20280;-69
2022/08/07 10:45:32;;;;;;;;;;;22.90;96.30;;;;;;5074137;28;19912;-70
2022/08/07 10:47:57;;;;;;;;;;;22.80;96.70;;;;;;5071639;28;20212;-69
2022/08/07 10:50:30;;;;;;;;;;;23.00;97.10;;;;;;5072139;28;19920;-70
2022/08/07 10:53:08;;;;;;;;;;;23.30;96.60;;;;;;5106223;28;20223;-70
2022/08/07 10:55:46;;;;;;;;;;;23.50;95.70;;;;;;5070305;28;19923;-70
2022/08/07 10:58:29;;;;;;;;;;;23.70;95.90;;;;;;5067954;28;19936;-70
2022/08/07 11:01:00;;;;;;;;;;;24.00;96.40;;;;;;5073912;28;19955;-69
2022/08/07 11:03:47;;;;;;;;;;;24.10;95.20;;;;;;5072637;28;20074;-71
2022/08/07 11:06:17;;;;;;;;;;;24.00;94.70;;;;;;5073933;28;19920;-69
2022/08/07 11:09:02;;;;;;;;;;;23.90;96.00;;;;;;5073075;28;19913;-69
2022/08/07 11:11:44;;;;;;;;;;;24.00;95.70;;;;;;5071557;28;19912;-70
2022/08/07 11:14:21;;;;;;;;;;;24.30;94.50;;;;;;5069620;28;20266;-71
2022/08/07 11:16:57;;;;;;;;;;;23.90;94.30;;;;;;5067628;28;19924;-70
2022/08/07 11:19:35;;;;;;;;;;;23.60;94.60;;;;;;5072922;28;19935;-70
2022/08/07 11:22:09;;;;;;;;;;;24.00;94.80;;;;;;5070948;28;19927;-69
2022/08/07 11:24:41;;;;;;;;;;;23.90;94.60;;;;;;5073079;28;19916;-69
2022/08/07 11:27:12;;;;;;;;;;;23.90;94.50;;;;;;5072243;28;19919;-70
2022/08/07 11:29:59;;;;;;;;;;;24.10;94.40;;;;;;5070064;28;19942;-70
2022/08/07 11:32:37;;;;;;;;;;;24.00;94.40;;;;;;5072133;28;20233;-70
2022/08/07 11:35:07;;;;;;;;;;;23.90;94.60;;;;;;5074042;28;19920;-70
2022/08/07 11:37:51;;;;;;;;;;;24.00;94.10;;;;;;5070309;28;19951;-70
2022/08/07 11:40:52;;;;;;;;;;;23.90;93.80;;;;;;5072761;28;19920;-70
2022/08/07 11:43:24;;;;;;;;;;;23.90;94.90;;;;;;5064096;28;19920;-70
2022/08/07 11:45:49;;;;;;;;;;;23.70;95.00;;;;;;5070017;28;19962;-70
2022/08/07 11:48:24;;;;;;;;;;;23.70;94.80;;;;;;5069613;28;19917;-69
2022/08/07 11:51:22;;;;;;;;;;;24.00;94.50;;;;;;5070145;28;19916;-69
2022/08/07 11:53:57;;;;;;;;;;;24.00;94.60;;;;;;5045287;28;19917;-70
2022/08/07 11:56:32;;;;;;;;;;;24.00;94.20;;;;;;5069357;28;19916;-69
2022/08/07 11:58:57;;;;;;;;;;;24.20;94.10;;;;;;5101634;28;19938;-70
2022/08/07 12:01:25;;;;;;;;;;;24.30;94.80;;;;;;5069278;28;20247;-72
2022/08/07 12:04:24;;;;;;;;;;;24.20;94.30;;;;;;5104874;28;19917;-70
2022/08/07 12:06:55;;;;;;;;;;;24.00;93.80;;;;;;5046114;28;20219;-70
2022/08/07 12:09:35;;;;;;;;;;;23.80;94.90;;;;;;5069123;28;19927;-71
2022/08/07 12:12:06;;;;;;;;;;;23.90;94.40;;;;;;5068911;28;19924;-70
2022/08/07 12:14:37;;;;;;;;;;;23.70;94.50;;;;;;5071409;28;20053;-70
2022/08/07 12:17:07;;;;;;;;;;;23.80;94.80;;;;;;5072806;28;19974;-70
2022/08/07 12:19:42;;;;;;;;;;;23.70;94.10;;;;;;5068745;28;19920;-71
2022/08/07 12:22:11;;;;;;;;;;;23.50;96.30;;;;;;5071440;28;19966;-71
2022/08/07 12:24:37;;;;;;;;;;;23.40;95.00;;;;;;5069339;28;19955;-71
2022/08/07 12:27:17;;;;;;;;;;;23.30;95.50;;;;;;5069507;28;19916;-70
2022/08/07 12:29:55;;;;;;;;;;;23.20;96.70;;;;;;5069153;28;19918;-69
2022/08/07 12:32:27;;;;;;;;;;;23.30;95.40;;;;;;5073837;28;20007;-71
2022/08/07 12:34:53;;;;;;;;;;;23.50;95.30;;;;;;5075369;28;19921;-71
2022/08/07 12:37:19;;;;;;;;;;;23.60;94.50;;;;;;5071728;28;19923;-71
2022/08/07 12:39:47;;;;;;;;;;;23.60;95.10;;;;;;5074749;28;19921;-71
2022/08/07 12:42:13;;;;;;;;;;;23.60;95.60;;;;;;5054828;28;20007;-74
2022/08/07 12:44:42;;;;;;;;;;;23.80;94.20;;;;;;5071938;28;19942;-75
2022/08/07 12:47:26;;;;;;;;;;;23.80;95.20;;;;;;5062959;28;19942;-71
2022/08/07 12:50:10;;;;;;;;;;;23.80;94.50;;;;;;5075047;28;19916;-72
2022/08/07 12:52:35;;;;;;;;;;;23.80;94.20;;;;;;5072236;28;20559;-70
2022/08/07 12:55:02;;;;;;;;;;;23.90;95.20;;;;;;5068615;28;19913;-71
2022/08/07 12:57:30;;;;;;;;;;;23.90;94.30;;;;;;5070002;28;19921;-71
2022/08/07 12:59:57;;;;;;;;;;;24.10;94.30;;;;;;5071485;28;20070;-70
2022/08/07 13:02:42;;;;;;;;;;;24.00;95.40;;;;;;5073683;28;19913;-72
2022/08/07 13:05:07;;;;;;;;;;;24.00;93.10;;;;;;5074154;28;19916;-71
2022/08/07 13:07:43;;;;;;;;;;;24.10;94.60;;;;;;5108382;28;19920;-74
2022/08/07 13:10:27;;;;;;;;;;;24.10;94.30;;;;;;5070208;28;20417;-71
2022/08/07 13:12:59;;;;;;;;;;;24.10;93.40;;;;;;5068260;28;19912;-70
2022/08/07 13:15:35;;;;;;;;;;;24.10;93.20;;;;;;5073649;28;19974;-75
2022/08/07 13:18:24;;;;;;;;;;;24.30;92.70;;;;;;5072249;28;20007;-70
2022/08/07 13:21:00;;;;;;;;;;;24.10;92.20;;;;;;5070193;28;20304;-71
2022/08/07 13:23:51;;;;;;;;;;;24.10;92.90;;;;;;5071717;28;19948;-72
2022/08/07 13:26:21;;;;;;;;;;;24.10;92.20;;;;;;5073881;28;19920;-71
2022/08/07 13:28:56;;;;;;;;;;;24.10;92.60;;;;;;5075029;28;19991;-74
2022/08/07 13:31:28;;;;;;;;;;;24.20;91.30;;;;;;5074982;28;19943;-71
2022/08/07 13:33:58;;;;;;;;;;;24.10;93.00;;;;;;5071202;28;19982;-73
2022/08/07 13:36:29;;;;;;;;;;;24.10;91.90;;;;;;5072397;28;20465;-71
2022/08/07 13:38:58;;;;;;;;;;;24.10;91.70;;;;;;5071919;28;19923;-72
2022/08/07 13:41:34;;;;;;;;;;;24.30;91.90;;;;;;5075145;28;19966;-71
2022/08/07 13:44:03;;;;;;;;;;;24.30;92.90;;;;;;5071775;28;19912;-71
2022/08/07 13:46:33;;;;;;;;;;;24.10;92.10;;;;;;5071586;28;19917;-75
2022/08/07 13:49:00;;;;;;;;;;;24.20;93.10;;;;;;5074035;28;19913;-71
2022/08/07 13:51:27;;;;;;;;;;;24.10;92.60;;;;;;5070459;28;19930;-70
2022/08/07 13:53:56;;;;;;;;;;;24.10;92.70;;;;;;5065336;28;19913;-73
2022/08/07 13:56:23;;;;;;;;;;;24.30;94.60;;;;;;5074433;28;20143;-72
2022/08/07 13:59:03;;;;;;;;;;;24.30;94.50;;;;;;5071016;28;19947;-71
2022/08/07 14:01:30;;;;;;;;;;;24.40;92.90;;;;;;5073401;28;19920;-73
2022/08/07 14:03:57;;;;;;;;;;;24.50;92.70;;;;;;5072602;28;20319;-74
2022/08/07 14:06:29;;;;;;;;;;;24.30;92.00;;;;;;5066888;28;19917;-71
2022/08/07 14:08:55;;;;;;;;;;;24.10;92.90;;;;;;5072882;28;19919;-71
2022/08/07 14:11:22;;;;;;;;;;;24.20;93.20;;;;;;5071181;28;19923;-71
2022/08/07 14:13:54;;;;;;;;;;;24.20;94.50;;;;;;5073104;28;19920;-71
2022/08/07 14:16:23;;;;;;;;;;;24.40;93.60;;;;;;5070337;28;19998;-74
2022/08/07 14:18:50;;;;;;;;;;;24.10;92.40;;;;;;5074842;28;19923;-71
2022/08/07 14:21:20;;;;;;;;;;;23.90;93.00;;;;;;5068736;28;19920;-72
2022/08/07 14:24:06;;;;;;;;;;;24.00;93.40;;;;;;5105905;28;19959;-71
2022/08/07 14:26:36;;;;;;;;;;;24.00;94.20;;;;;;5069022;28;20314;-71
2022/08/07 14:29:03;;;;;;;;;;;23.70;94.20;;;;;;5073649;28;19913;-71
2022/08/07 14:31:30;;;;;;;;;;;23.80;95.00;;;;;;5065869;28;20387;-75
2022/08/07 14:33:56;;;;;;;;;;;23.70;94.30;;;;;;5073900;28;19917;-71
2022/08/07 14:36:22;;;;;;;;;;;23.50;94.50;;;;;;5073121;28;19920;-72
2022/08/07 14:38:49;;;;;;;;;;;23.60;94.80;;;;;;5071349;28;20262;-70